createdAt,value
2018-09-03T00:19:23.292Z,16.7
2018-09-03T00:34:23.310Z,17.5
2018-09-03T01:04:37.587Z,18.7
2018-09-03T01:39:52.505Z,20.2
2018-09-03T01:54:52.468Z,18
2018-09-03T02:14:52.545Z,17.9
2018-09-03T03:00:05.757Z,16.3
2018-09-03T03:20:05.644Z,14.5
2018-09-03T03:35:18.268Z,14.6
2018-09-03T04:10:20.437Z,15.4
2018-09-03T04:25:32.679Z,13.6
2018-09-03T04:40:32.332Z,12.5
2018-09-03T04:55:32.532Z,11.5
2018-09-03T05:15:47.379Z,13.7
2018-09-03T05:46:00.152Z,16
2018-09-03T06:06:00.074Z,16.7
2018-09-03T06:21:00.076Z,14.6
2018-09-03T06:36:00.586Z,11.3
2018-09-03T06:56:12.328Z,11.4
2018-09-03T07:11:12.077Z,11.6
2018-09-03T07:26:12.266Z,10.9
2018-09-03T08:01:25.940Z,8.9
2018-09-03T08:31:26.660Z,9.1
2018-09-03T08:51:42.235Z,10.3
2018-09-03T09:21:41.970Z,7.9
2018-09-03T09:36:55.747Z,13.7
2018-09-03T09:56:54.956Z,9.4
2018-09-03T10:11:54.960Z,6.1
2018-09-03T10:26:55.172Z,7.1
2018-09-03T10:47:08.390Z,4.9
2018-09-03T11:02:07.638Z,4.9
2018-09-03T11:17:07.594Z,5.6
2018-09-03T11:37:20.019Z,6.8
2018-09-03T11:52:20.031Z,6.9
2018-09-03T12:07:22.750Z,7.2
2018-09-03T12:22:20.027Z,6.2
2018-09-03T12:42:32.667Z,4.7
2018-09-03T12:57:32.551Z,5.8
2018-09-03T13:12:33.864Z,5.9
2018-09-03T13:32:33.245Z,4.6
2018-09-03T13:47:33.432Z,5.3
2018-09-03T14:02:46.094Z,7.1
2018-09-03T14:22:46.114Z,8.8
2018-09-03T14:38:08.253Z,7.1
2018-09-03T14:53:08.293Z,9
2018-09-03T15:08:20.149Z,7
2018-09-03T15:28:19.948Z,7.2
2018-09-03T15:43:31.416Z,7.5
2018-09-03T15:58:30.708Z,6.7
2018-09-03T16:13:30.735Z,6.4
2018-09-03T16:33:41.605Z,8.9
2018-09-03T16:48:42.134Z,8.8
2018-09-03T17:03:41.864Z,8
2018-09-03T17:23:41.843Z,8.5
2018-09-03T17:38:58.527Z,8.5
2018-09-03T17:53:58.181Z,8.5
2018-09-03T18:08:58.260Z,9.7
2018-09-03T18:44:09.546Z,10.6
2018-09-03T18:59:10.233Z,9
2018-09-03T19:19:09.952Z,11.2
2018-09-03T19:34:22.522Z,11.3
2018-09-03T19:49:22.425Z,11.9
2018-09-03T20:39:36.496Z,11.9
2018-09-03T20:54:36.334Z,7.5
2018-09-03T21:14:37.024Z,9.6
2018-09-03T21:29:49.672Z,12.9
2018-09-03T21:44:49.411Z,7.7
2018-09-03T22:04:49.672Z,9.6
2018-09-03T22:35:01.549Z,10.3
2018-09-03T22:50:01.800Z,11
2018-09-03T23:10:01.553Z,11.9
2018-09-03T23:40:16.013Z,12
